createdAt,value
2019-05-11T00:02:24.778Z,95.80
2019-05-11T00:07:30.085Z,95.90
2019-05-11T00:12:34.918Z,95.80
2019-05-11T00:17:39.769Z,96.50
2019-05-11T00:23:04.070Z,96.80
2019-05-11T00:28:08.932Z,96.70
2019-05-11T00:33:13.748Z,96.80
2019-05-11T00:38:18.506Z,97.00
2019-05-11T00:43:23.344Z,97.30
2019-05-11T00:48:28.180Z,97.30
2019-05-11T00:53:33.228Z,97.20
2019-05-11T00:58:38.101Z,97.30
2019-05-11T01:03:42.983Z,97.20
2019-05-11T01:08:48.621Z,97.20
2019-05-11T01:13:54.081Z,97.70
2019-05-11T01:18:59.848Z,97.50
2019-05-11T01:24:05.259Z,97.30
2019-05-11T01:29:10.829Z,97.40
2019-05-11T01:34:15.702Z,97.50
2019-05-11T01:39:20.529Z,97.50
2019-05-11T01:44:25.389Z,97.50
2019-05-11T01:49:30.243Z,97.50
2019-05-11T01:54:35.020Z,96.90
2019-05-11T01:59:57.423Z,96.90
2019-05-11T02:05:20.237Z,96.90
2019-05-11T02:10:25.273Z,97.20
2019-05-11T02:15:30.215Z,96.40
2019-05-11T02:20:34.975Z,97.10
2019-05-11T02:25:39.805Z,97.00
2019-05-11T02:30:44.650Z,97.80
2019-05-11T02:35:49.493Z,98.50
2019-05-11T02:40:54.343Z,99.70
2019-05-11T02:45:59.177Z,99.90
2019-05-11T02:51:04.436Z,99.90
2019-05-11T02:56:09.191Z,99.90
2019-05-11T03:01:14.043Z,99.90
2019-05-11T03:06:18.865Z,99.90
2019-05-11T03:11:23.636Z,99.90
2019-05-11T03:16:28.406Z,99.90
2019-05-11T03:21:33.251Z,99.90
2019-05-11T03:26:38.030Z,99.90
2019-05-11T03:31:42.858Z,99.90
2019-05-11T03:36:47.568Z,99.90
2019-05-11T03:41:52.334Z,99.90
2019-05-11T03:46:57.172Z,99.90
2019-05-11T03:52:02.018Z,99.90
2019-05-11T03:57:06.859Z,99.90
2019-05-11T04:02:11.706Z,99.70
2019-05-11T04:07:16.560Z,99.60
2019-05-11T04:12:34.209Z,99.10
2019-05-11T04:17:27.809Z,98.60
2019-05-11T04:22:32.632Z,98.20
2019-05-11T04:27:37.398Z,97.80
2019-05-11T04:32:42.255Z,97.40
2019-05-11T04:37:47.001Z,97.10
2019-05-11T04:42:55.666Z,96.80
2019-05-11T04:47:58.300Z,96.40
2019-05-11T04:53:03.074Z,96.10
2019-05-11T04:58:07.906Z,97.00
2019-05-11T05:03:12.822Z,95.60
2019-05-11T05:08:21.167Z,94.60
2019-05-11T05:13:29.575Z,94.40
2019-05-11T05:18:32.751Z,93.90
2019-05-11T05:23:37.610Z,94.10
2019-05-11T05:28:45.589Z,93.10
2019-05-11T05:33:48.874Z,92.50
2019-05-11T05:38:53.736Z,92.10
2019-05-11T05:43:59.058Z,92.00
2019-05-11T05:49:03.834Z,91.30
2019-05-11T05:54:09.415Z,91.30
2019-05-11T05:59:14.264Z,90.60
2019-05-11T06:04:19.040Z,90.20
2019-05-11T06:09:23.753Z,88.30
2019-05-11T06:14:28.629Z,87.50
2019-05-11T06:19:33.478Z,87.30
2019-05-11T06:24:38.340Z,86.50
2019-05-11T06:29:43.121Z,86.40
2019-05-11T06:34:47.967Z,86.40
2019-05-11T06:39:52.913Z,84.60
2019-05-11T06:44:57.752Z,85.20
2019-05-11T06:50:02.604Z,85.20
2019-05-11T06:55:07.454Z,85.00
2019-05-11T07:00:13.041Z,84.20
2019-05-11T07:05:17.881Z,83.80
2019-05-11T07:10:22.787Z,83.50
2019-05-11T07:15:28.437Z,83.50
2019-05-11T07:20:48.079Z,80.50
2019-05-11T07:25:39.727Z,81.40
2019-05-11T07:30:46.042Z,83.80
2019-05-11T07:35:52.148Z,82.90
2019-05-11T07:40:58.228Z,83.00
2019-05-11T07:46:03.321Z,83.90
2019-05-11T07:51:08.946Z,84.20
2019-05-11T07:56:14.081Z,83.70
2019-05-11T08:01:19.120Z,83.10
2019-05-11T08:06:24.150Z,81.50
2019-05-11T08:11:31.510Z,80.50
2019-05-11T08:16:35.455Z,82.00
2019-05-11T08:21:40.199Z,81.30
2019-05-11T08:26:45.041Z,79.90
2019-05-11T08:31:49.885Z,80.80
2019-05-11T08:36:54.806Z,80.80
2019-05-11T08:42:02.762Z,77.20
2019-05-11T08:47:08.363Z,76.10
2019-05-11T08:52:12.575Z,74.10
2019-05-11T08:57:18.068Z,78.10
2019-05-11T09:02:23.010Z,74.40
2019-05-11T09:07:27.940Z,74.60
2019-05-11T09:12:32.797Z,74.40
2019-05-11T09:17:38.281Z,73.30
2019-05-11T09:22:43.321Z,71.20
2019-05-11T09:27:48.439Z,73.70
2019-05-11T09:32:53.425Z,71.40
2019-05-11T09:37:58.925Z,73.40
2019-05-11T09:43:04.002Z,70.20
2019-05-11T09:48:08.833Z,70.60
2019-05-11T09:53:13.652Z,72.40
2019-05-11T09:58:19.736Z,74.00
2019-05-11T10:03:25.186Z,73.90
2019-05-11T10:08:29.960Z,72.70
2019-05-11T10:13:34.828Z,70.80
2019-05-11T10:18:39.622Z,73.00
2019-05-11T10:23:44.489Z,74.50
2019-05-11T10:28:49.344Z,73.30
2019-05-11T10:33:54.231Z,73.30
2019-05-11T10:38:59.141Z,72.30
2019-05-11T10:44:04.018Z,72.00
2019-05-11T10:49:21.060Z,67.30
2019-05-11T10:54:28.470Z,68.20
2019-05-11T10:59:32.388Z,68.10
2019-05-11T11:04:38.034Z,68.80
2019-05-11T11:09:43.076Z,66.90
2019-05-11T11:14:48.331Z,64.20
2019-05-11T11:19:54.216Z,57.70
2019-05-11T11:24:59.143Z,58.80
2019-05-11T11:30:08.965Z,61.90
2019-05-11T11:35:12.874Z,58.40
2019-05-11T11:40:18.047Z,60.90
2019-05-11T11:45:22.851Z,61.00
2019-05-11T11:50:28.322Z,62.20
2019-05-11T11:55:33.396Z,54.90
2019-05-11T12:00:39.101Z,55.00
2019-05-11T12:05:44.135Z,57.40
2019-05-11T12:10:49.187Z,52.00
2019-05-11T12:15:54.285Z,54.10
2019-05-11T12:20:59.126Z,53.70
2019-05-11T12:26:03.872Z,56.30
2019-05-11T12:31:08.832Z,54.50
2019-05-11T12:36:13.674Z,54.70
2019-05-11T12:41:19.184Z,52.40
2019-05-11T12:46:24.216Z,52.60
2019-05-11T12:51:28.970Z,52.30
2019-05-11T12:56:33.796Z,50.90
2019-05-11T13:01:38.620Z,54.70
2019-05-11T13:06:43.475Z,53.30
2019-05-11T13:11:48.405Z,52.60
2019-05-11T13:16:53.259Z,54.60
2019-05-11T13:21:58.970Z,50.30
2019-05-11T13:27:04.017Z,51.20
2019-05-11T13:32:08.769Z,52.20
2019-05-11T13:37:13.605Z,51.50
2019-05-11T13:42:19.531Z,51.30
2019-05-11T13:47:25.065Z,52.90
2019-05-11T13:52:29.954Z,52.70
2019-05-11T13:57:37.801Z,50.10
2019-05-11T14:02:42.233Z,46.10
2019-05-11T14:07:48.277Z,47.40
2019-05-11T14:12:53.434Z,48.20
2019-05-11T14:18:07.841Z,46.30
2019-05-11T14:23:04.720Z,47.30
2019-05-11T14:28:09.558Z,47.60
2019-05-11T14:33:17.983Z,48.20
2019-05-11T14:38:20.879Z,46.40
2019-05-11T14:43:27.608Z,47.80
2019-05-11T14:48:32.101Z,47.60
2019-05-11T14:53:37.843Z,48.10
2019-05-11T14:58:42.877Z,48.00
2019-05-11T15:03:48.668Z,48.70
2019-05-11T15:08:53.869Z,48.40
2019-05-11T15:13:58.621Z,49.20
2019-05-11T15:19:03.374Z,50.10
2019-05-11T15:24:09.070Z,46.80
2019-05-11T15:29:14.428Z,47.10
2019-05-11T15:34:19.384Z,47.70
2019-05-11T15:39:24.145Z,47.40
2019-05-11T15:44:28.980Z,47.60
2019-05-11T15:49:33.808Z,47.70
2019-05-11T15:54:38.746Z,48.70
2019-05-11T15:59:43.582Z,49.00
2019-05-11T16:04:49.262Z,48.40
2019-05-11T16:09:54.586Z,49.10
2019-05-11T16:14:59.418Z,50.30
2019-05-11T16:20:08.731Z,51.10
2019-05-11T16:25:13.535Z,49.50
2019-05-11T16:30:21.613Z,49.20
2019-05-11T16:35:24.931Z,49.80
2019-05-11T16:40:29.790Z,49.90
2019-05-11T16:45:34.612Z,50.10
2019-05-11T16:50:39.444Z,48.00
2019-05-11T16:55:44.445Z,48.70
2019-05-11T17:00:49.335Z,48.70
2019-05-11T17:05:54.202Z,50.60
2019-05-11T17:10:59.585Z,49.70
2019-05-11T17:16:08.634Z,49.50
2019-05-11T17:21:13.032Z,49.80
2019-05-11T17:26:18.986Z,50.80
2019-05-11T17:31:24.346Z,53.30
2019-05-11T17:36:29.158Z,54.90
2019-05-11T17:41:34.049Z,56.40
2019-05-11T17:46:38.805Z,54.80
2019-05-11T17:51:43.506Z,57.80
2019-05-11T17:56:48.461Z,58.30
2019-05-11T18:01:53.303Z,57.80
2019-05-11T18:06:58.854Z,61.10
2019-05-11T18:12:03.983Z,61.60
2019-05-11T18:17:10.087Z,62.80
2019-05-11T18:22:17.670Z,64.10
2019-05-11T18:27:21.738Z,63.80
2019-05-11T18:32:28.399Z,62.40
2019-05-11T18:37:33.085Z,62.90
2019-05-11T18:42:38.419Z,66.10
2019-05-11T18:47:43.620Z,67.70
2019-05-11T18:52:48.980Z,69.40
2019-05-11T18:57:54.250Z,69.70
2019-05-11T19:02:59.096Z,69.60
2019-05-11T19:08:03.951Z,71.80
2019-05-11T19:13:08.871Z,72.50
2019-05-11T19:18:13.706Z,72.40
2019-05-11T19:23:19.376Z,71.80
2019-05-11T19:28:25.098Z,70.50
2019-05-11T19:33:29.879Z,71.10
2019-05-11T19:38:34.664Z,70.30
2019-05-11T19:43:39.447Z,70.10
2019-05-11T19:48:44.290Z,70.40
2019-05-11T19:53:49.152Z,70.80
2019-05-11T19:58:54.010Z,69.60
2019-05-11T20:03:59.084Z,71.40
2019-05-11T20:09:08.213Z,71.40
2019-05-11T20:14:12.687Z,74.20
2019-05-11T20:19:19.241Z,75.20
2019-05-11T20:24:25.172Z,79.50
2019-05-11T20:29:30.182Z,82.60
2019-05-11T20:34:35.040Z,83.80
2019-05-11T20:39:39.840Z,84.70
2019-05-11T20:44:44.666Z,85.10
2019-05-11T20:49:49.525Z,85.70
2019-05-11T20:54:55.555Z,86.50
2019-05-11T21:00:00.399Z,85.80
2019-05-11T21:05:09.059Z,84.80
2019-05-11T21:10:15.387Z,84.00
2019-05-11T21:15:21.723Z,84.00
2019-05-11T21:20:28.520Z,84.30
2019-05-11T21:25:32.972Z,85.50
2019-05-11T21:30:39.925Z,85.60
2019-05-11T21:35:44.298Z,86.40
2019-05-11T21:40:49.065Z,86.70
2019-05-11T21:45:53.896Z,86.70
2019-05-11T21:50:59.975Z,86.30
2019-05-11T21:56:04.925Z,86.40
2019-05-11T22:01:11.912Z,86.30
2019-05-11T22:06:16.850Z,86.20
2019-05-11T22:11:21.679Z,86.50
2019-05-11T22:16:29.799Z,86.40
2019-05-11T22:21:32.980Z,86.20
2019-05-11T22:26:38.075Z,85.50
2019-05-11T22:31:42.967Z,85.30
2019-05-11T22:36:47.992Z,86.00
2019-05-11T22:41:52.868Z,86.60
2019-05-11T22:46:58.262Z,86.40
2019-05-11T22:52:03.179Z,87.50
2019-05-11T22:57:08.231Z,87.30
2019-05-11T23:02:13.255Z,88.50
2019-05-11T23:07:18.585Z,88.00
2019-05-11T23:12:23.666Z,88.50
2019-05-11T23:17:28.844Z,89.20
2019-05-11T23:22:50.717Z,89.10
2019-05-11T23:27:41.698Z,90.00
2019-05-11T23:32:48.512Z,89.70
2019-05-11T23:37:52.914Z,89.20
2019-05-11T23:42:57.966Z,90.00
2019-05-11T23:48:02.920Z,90.20
2019-05-11T23:53:10.164Z,90.30
2019-05-11T23:58:14.213Z,90.50
